Time;durP1;ratioP1;P1;durP2;ratioP2;P2;SDS_P1;SDS_P2;PMS_P1;PMS_P2;Temp;Humidity;BMP_temperature;BMP_pressure;BME280_temperature;BME280_humidity;BME280_pressure;Samples;Min_cycle;Max_cycle;Signal;HPM_P1;HPM_P2
2021/01/31 00:01:37;;;;;;;0.50;0.50;;;4.80;99.90;;;;;;5094375;28;20863;-32
2021/01/31 00:04:04;;;;;;;0.60;0.60;;;4.80;99.90;;;;;;5112169;28;20583;-27
2021/01/31 00:06:32;;;;;;;0.60;0.60;;;4.90;99.90;;;;;;5112648;28;20441;-29
2021/01/31 00:09:00;;;;;;;0.60;0.60;;;4.90;99.90;;;;;;5106561;28;20443;-29
2021/01/31 00:11:29;;;;;;;0.60;0.60;;;4.80;99.90;;;;;;5090773;28;20444;-28
2021/01/31 00:13:55;;;;;;;0.60;0.60;;;4.90;99.90;;;;;;5090632;28;20513;-28
2021/01/31 00:16:23;;;;;;;0.60;0.60;;;4.90;99.90;;;;;;5071202;28;20536;-28
2021/01/31 00:18:53;;;;;;;0.60;0.60;;;4.80;99.90;;;;;;5090820;28;20998;-28
2021/01/31 00:21:20;;;;;;;2.60;2.50;;;4.80;99.90;;;;;;5090341;28;20966;-29
2021/01/31 00:23:47;;;;;;;0.50;0.50;;;4.80;99.90;;;;;;5098764;28;20490;-28
2021/01/31 00:26:14;;;;;;;0.57;0.57;;;4.80;99.90;;;;;;5111505;28;20772;-29
2021/01/31 00:28:43;;;;;;;0.50;0.50;;;4.80;99.90;;;;;;5100686;28;20450;-29
2021/01/31 00:31:11;;;;;;;0.60;0.60;;;4.70;99.90;;;;;;5091694;28;20887;-28
2021/01/31 00:33:39;;;;;;;0.60;0.60;;;4.80;99.90;;;;;;5090248;28;20853;-28
2021/01/31 00:36:08;;;;;;;0.57;0.57;;;4.60;99.90;;;;;;5091662;28;20452;-29
2021/01/31 00:38:35;;;;;;;0.60;0.60;;;4.70;99.90;;;;;;5091477;28;20455;-30
2021/01/31 00:41:02;;;;;;;0.60;0.60;;;4.60;99.90;;;;;;5091000;28;21149;-28
2021/01/31 00:43:31;;;;;;;0.60;0.60;;;4.50;99.90;;;;;;5081796;28;20445;-28
2021/01/31 00:45:58;;;;;;;0.60;0.60;;;4.40;99.90;;;;;;5111111;28;20469;-28
2021/01/31 00:48:26;;;;;;;0.70;0.70;;;4.40;99.90;;;;;;5108509;28;20494;-29
2021/01/31 00:50:57;;;;;;;0.60;0.60;;;4.40;99.90;;;;;;5109971;28;20453;-29
2021/01/31 00:53:26;;;;;;;0.57;0.57;;;4.40;99.90;;;;;;5111601;28;20787;-28
2021/01/31 00:56:06;;;;;;;0.60;0.60;;;4.40;99.90;;;;;;5110450;28;20488;-29
2021/01/31 00:58:47;;;;;;;0.60;0.60;;;4.50;99.90;;;;;;5093050;28;20461;-28
2021/01/31 01:01:20;;;;;;;0.57;0.57;;;4.50;99.90;;;;;;5110962;28;20487;-28
2021/01/31 01:03:47;;;;;;;0.60;0.60;;;4.30;99.90;;;;;;5109065;28;20456;-29
2021/01/31 01:06:24;;;;;;;0.60;0.60;;;4.30;99.90;;;;;;5110647;28;20598;-28
2021/01/31 01:08:51;;;;;;;0.60;0.60;;;4.30;99.90;;;;;;5109712;28;20455;-27
2021/01/31 01:11:19;;;;;;;0.60;0.60;;;4.40;99.90;;;;;;5110220;28;20854;-29
2021/01/31 01:13:48;;;;;;;0.60;0.60;;;4.30;99.90;;;;;;5110020;28;20533;-27
2021/01/31 01:16:15;;;;;;;0.60;0.60;;;4.20;99.90;;;;;;5110438;28;20476;-30
2021/01/31 01:18:43;;;;;;;0.60;0.60;;;4.20;99.90;;;;;;5110133;28;20443;-27
2021/01/31 01:21:15;;;;;;;0.50;0.50;;;4.30;99.90;;;;;;5096468;28;20487;-29
2021/01/31 01:23:43;;;;;;;0.50;0.50;;;4.30;99.90;;;;;;5089329;28;20579;-28
2021/01/31 01:26:12;;;;;;;0.53;0.53;;;4.40;99.90;;;;;;5088890;28;20849;-27
2021/01/31 01:28:39;;;;;;;0.60;0.60;;;4.50;99.90;;;;;;5089859;28;20650;-27
2021/01/31 01:31:08;;;;;;;0.63;0.63;;;4.60;99.90;;;;;;5089651;28;20490;-28
2021/01/31 01:33:35;;;;;;;0.50;0.50;;;4.60;99.90;;;;;;5090045;28;20621;-28
2021/01/31 01:36:04;;;;;;;0.60;0.60;;;4.60;99.90;;;;;;5087100;28;20534;-28
2021/01/31 01:38:32;;;;;;;0.60;0.60;;;4.50;99.90;;;;;;5088989;28;20459;-30
2021/01/31 01:41:03;;;;;;;0.60;0.60;;;4.50;99.90;;;;;;5088006;28;20522;-28
2021/01/31 01:43:31;;;;;;;0.60;0.60;;;4.50;99.90;;;;;;5087993;28;20447;-29
2021/01/31 01:46:31;;;;;;;0.63;0.63;;;4.50;99.90;;;;;;5088201;28;20460;-27
2021/01/31 01:49:05;;;;;;;2.50;2.40;;;4.50;99.90;;;;;;5068912;28;20463;-26
2021/01/31 01:51:39;;;;;;;1.03;1.03;;;4.50;99.90;;;;;;5088108;28;20495;-30
2021/01/31 01:54:09;;;;;;;0.50;0.50;;;4.60;99.90;;;;;;5089323;28;20867;-28
2021/01/31 01:56:40;;;;;;;0.63;0.63;;;4.60;99.90;;;;;;5088942;28;20456;-28
2021/01/31 01:59:10;;;;;;;0.50;0.50;;;4.50;99.90;;;;;;5089509;28;20450;-29
2021/01/31 02:01:41;;;;;;;0.60;0.60;;;4.50;99.90;;;;;;5086947;28;20533;-29
2021/01/31 02:04:11;;;;;;;3.77;3.53;;;4.30;99.90;;;;;;5088003;28;20447;-27
2021/01/31 02:06:38;;;;;;;2.20;2.10;;;4.30;99.90;;;;;;5088554;28;20869;-28
2021/01/31 02:09:07;;;;;;;0.50;0.50;;;4.20;99.90;;;;;;5087074;28;20502;-30
2021/01/31 02:11:35;;;;;;;0.60;0.60;;;4.10;99.90;;;;;;5087630;28;20436;-28
2021/01/31 02:14:07;;;;;;;0.60;0.60;;;4.10;99.90;;;;;;5082813;28;20858;-28
2021/01/31 02:16:44;;;;;;;0.60;0.60;;;4.10;99.90;;;;;;5067724;28;20575;-28
2021/01/31 02:19:44;;;;;;;2.00;2.00;;;3.90;99.90;;;;;;5068533;28;20444;-28
2021/01/31 02:22:40;;;;;;;0.57;0.57;;;4.10;99.90;;;;;;4966221;28;20595;-28
2021/01/31 02:25:46;;;;;;;0.60;0.60;;;4.20;99.90;;;;;;5080618;28;20443;-28
2021/01/31 02:28:46;;;;;;;0.60;0.60;;;4.30;99.90;;;;;;5089373;28;20451;-30
2021/01/31 02:31:47;;;;;;;0.50;0.50;;;4.10;99.90;;;;;;5089075;28;20775;-27
2021/01/31 02:34:23;;;;;;;0.60;0.60;;;4.00;99.90;;;;;;5087937;28;20517;-28
2021/01/31 02:37:07;;;;;;;0.60;0.60;;;4.00;99.90;;;;;;5087451;28;20451;-28
2021/01/31 02:39:41;;;;;;;0.60;0.60;;;4.00;99.90;;;;;;5067980;28;20526;-27
2021/01/31 02:42:38;;;;;;;0.60;0.60;;;4.00;99.90;;;;;;5066655;28;20797;-28
2021/01/31 02:45:16;;;;;;;0.90;0.90;;;4.00;99.90;;;;;;5066518;28;20456;-27
2021/01/31 02:47:52;;;;;;;0.50;0.50;;;3.90;99.90;;;;;;5067133;28;20775;-28
2021/01/31 02:50:23;;;;;;;0.50;0.50;;;3.80;99.90;;;;;;5068380;28;20504;-27
2021/01/31 02:52:56;;;;;;;0.60;0.60;;;3.80;99.90;;;;;;5058554;28;20451;-28
2021/01/31 02:55:28;;;;;;;0.50;0.50;;;3.80;99.90;;;;;;5087540;28;20436;-30
2021/01/31 02:58:02;;;;;;;0.50;0.50;;;3.80;99.90;;;;;;5088684;28;20515;-27
2021/01/31 03:00:34;;;;;;;0.50;0.50;;;3.90;99.90;;;;;;5088832;28;20841;-29
2021/01/31 03:03:11;;;;;;;0.50;0.50;;;4.00;99.90;;;;;;5088561;28;20509;-28
2021/01/31 03:05:42;;;;;;;0.80;0.80;;;3.90;99.90;;;;;;5088346;28;20905;-27
2021/01/31 03:08:15;;;;;;;0.50;0.50;;;4.00;99.90;;;;;;5087419;28;20447;-27
2021/01/31 03:10:47;;;;;;;0.50;0.50;;;3.80;99.90;;;;;;5124075;27;20580;-28
2021/01/31 03:13:21;;;;;;;0.60;0.60;;;3.80;99.90;;;;;;5124222;27;20471;-28
2021/01/31 03:15:54;;;;;;;0.50;0.50;;;3.90;99.90;;;;;;5108563;28;20538;-27
2021/01/31 03:18:36;;;;;;;0.60;0.60;;;4.00;99.90;;;;;;5084631;28;20493;-28
2021/01/31 03:21:10;;;;;;;0.60;0.60;;;4.00;99.90;;;;;;5107865;28;20439;-28
2021/01/31 03:23:43;;;;;;;0.60;0.60;;;4.00;99.90;;;;;;5107704;28;20534;-30
2021/01/31 03:26:19;;;;;;;0.50;0.50;;;3.90;99.90;;;;;;5108312;28;20448;-29
2021/01/31 03:28:46;;;;;;;0.50;0.50;;;3.90;99.90;;;;;;5107967;28;20453;-29
2021/01/31 03:31:17;;;;;;;0.50;0.50;;;3.80;99.90;;;;;;5121706;27;20465;-29
2021/01/31 03:33:49;;;;;;;0.60;0.60;;;3.60;99.90;;;;;;5122150;27;20572;-28
2021/01/31 03:36:17;;;;;;;0.60;0.60;;;3.50;99.90;;;;;;5106979;28;20492;-27
2021/01/31 03:38:49;;;;;;;2.63;2.53;;;3.50;99.90;;;;;;5106772;28;20446;-27
2021/01/31 03:41:19;;;;;;;0.50;0.50;;;3.60;99.90;;;;;;5105988;28;20579;-27
2021/01/31 03:43:47;;;;;;;0.60;0.60;;;3.70;99.90;;;;;;5105677;28;20537;-27
2021/01/31 03:46:19;;;;;;;0.50;0.50;;;3.70;99.90;;;;;;5107418;28;20542;-28
2021/01/31 03:48:51;;;;;;;0.50;0.50;;;3.60;99.90;;;;;;5105352;28;21156;-28
2021/01/31 03:51:20;;;;;;;0.53;0.53;;;3.60;99.90;;;;;;5084447;28;20435;-29
2021/01/31 03:53:49;;;;;;;0.50;0.50;;;3.60;99.90;;;;;;5086091;28;20458;-29
2021/01/31 03:56:21;;;;;;;0.50;0.50;;;3.60;99.90;;;;;;5086954;28;20491;-29
2021/01/31 03:58:53;;;;;;;0.50;0.50;;;3.60;99.90;;;;;;5088587;28;21641;-28
2021/01/31 04:01:21;;;;;;;0.50;0.50;;;3.60;99.90;;;;;;5108135;28;20526;-28
2021/01/31 04:04:01;;;;;;;0.57;0.57;;;3.70;99.90;;;;;;5106472;28;20779;-28
2021/01/31 04:06:37;;;;;;;0.60;0.60;;;3.70;99.90;;;;;;5105327;28;21050;-28
2021/01/31 04:09:07;;;;;;;0.60;0.60;;;3.80;99.90;;;;;;5104407;28;20430;-27
2021/01/31 04:11:37;;;;;;;0.50;0.50;;;3.70;99.90;;;;;;5104555;28;20474;-28
2021/01/31 04:14:13;;;;;;;0.50;0.50;;;3.70;99.90;;;;;;5105174;28;20521;-28
2021/01/31 04:16:44;;;;;;;2.30;2.30;;;3.60;99.90;;;;;;5106968;28;20461;-28
2021/01/31 04:19:12;;;;;;;0.60;0.60;;;3.60;99.90;;;;;;5106413;28;21183;-27
2021/01/31 04:21:40;;;;;;;0.50;0.50;;;3.60;99.90;;;;;;5105638;28;20487;-28
2021/01/31 04:24:09;;;;;;;0.60;0.60;;;3.60;99.90;;;;;;5101293;28;20555;-30
2021/01/31 04:26:36;;;;;;;0.57;0.57;;;3.70;99.90;;;;;;5106140;28;20454;-27
2021/01/31 04:29:04;;;;;;;2.93;2.83;;;3.60;99.90;;;;;;5105720;28;20434;-28
2021/01/31 04:31:32;;;;;;;0.60;0.60;;;3.70;99.90;;;;;;5108282;28;20450;-27
2021/01/31 04:34:00;;;;;;;10.93;10.53;;;3.70;99.90;;;;;;5106123;28;20442;-28
2021/01/31 04:36:28;;;;;;;0.50;0.50;;;3.80;99.90;;;;;;5088643;28;20452;-27
2021/01/31 04:38:56;;;;;;;0.60;0.60;;;3.80;99.90;;;;;;5090364;28;20480;-27
2021/01/31 04:41:29;;;;;;;0.53;0.53;;;3.80;99.90;;;;;;5071203;28;20436;-28
2021/01/31 04:43:57;;;;;;;0.60;0.60;;;3.80;99.90;;;;;;5106065;28;20462;-27
2021/01/31 04:46:35;;;;;;;0.60;0.60;;;3.90;99.90;;;;;;5109699;28;20494;-27
2021/01/31 04:49:12;;;;;;;0.50;0.50;;;3.90;99.90;;;;;;5107341;28;20494;-30
2021/01/31 04:51:57;;;;;;;0.50;0.50;;;4.00;99.90;;;;;;5108102;28;20457;-28
2021/01/31 04:54:44;;;;;;;0.60;0.60;;;4.10;99.90;;;;;;5091614;28;20455;-28
2021/01/31 04:57:14;;;;;;;0.60;0.60;;;4.00;99.90;;;;;;5108719;28;20541;-26
2021/01/31 04:59:45;;;;;;;0.50;0.50;;;4.00;99.90;;;;;;5109942;28;20443;-28
2021/01/31 05:02:17;;;;;;;0.87;0.87;;;3.90;99.90;;;;;;5107937;28;20474;-27
2021/01/31 05:04:52;;;;;;;0.60;0.60;;;3.90;99.90;;;;;;5109519;28;20466;-26
2021/01/31 05:07:24;;;;;;;0.50;0.50;;;3.90;99.90;;;;;;5109104;28;20441;-27
2021/01/31 05:09:53;;;;;;;0.50;0.50;;;3.90;99.90;;;;;;5110727;28;20561;-27
2021/01/31 05:12:23;;;;;;;0.60;0.60;;;3.80;99.90;;;;;;5108012;28;20483;-29
2021/01/31 05:15:18;;;;;;;0.60;0.60;;;3.70;99.90;;;;;;5106999;28;20497;-27
2021/01/31 05:17:48;;;;;;;1.43;1.43;;;3.60;99.90;;;;;;5097739;28;20500;-27
2021/01/31 05:20:20;;;;;;;5.63;5.33;;;3.50;99.90;;;;;;5107892;28;20435;-27
2021/01/31 05:22:50;;;;;;;0.60;0.60;;;3.60;99.90;;;;;;5105948;28;20462;-29
2021/01/31 05:25:24;;;;;;;0.50;0.50;;;3.60;99.90;;;;;;5108381;28;20438;-26
2021/01/31 05:27:56;;;;;;;0.60;0.60;;;3.50;99.90;;;;;;5108189;28;20439;-27
2021/01/31 05:30:24;;;;;;;0.60;0.60;;;3.50;99.90;;;;;;5108164;28;20482;-26
2021/01/31 05:33:08;;;;;;;0.50;0.50;;;3.50;99.90;;;;;;5090382;28;20451;-27
2021/01/31 05:35:39;;;;;;;0.60;0.60;;;3.50;99.90;;;;;;5088035;28;20452;-27
2021/01/31 05:38:09;;;;;;;0.60;0.60;;;3.50;99.90;;;;;;5086428;28;20491;-27
2021/01/31 05:40:41;;;;;;;0.60;0.60;;;3.60;99.90;;;;;;5104354;28;20501;-27
2021/01/31 05:43:15;;;;;;;0.60;0.60;;;3.60;99.90;;;;;;5106528;28;20455;-29
2021/01/31 05:45:44;;;;;;;0.50;0.50;;;3.70;99.90;;;;;;5107489;28;20446;-27
2021/01/31 05:48:19;;;;;;;0.60;0.60;;;3.70;99.90;;;;;;5109070;28;20711;-28
2021/01/31 05:50:48;;;;;;;0.60;0.60;;;3.80;99.90;;;;;;5108451;28;20538;-28
2021/01/31 05:53:32;;;;;;;0.60;0.60;;;3.70;99.90;;;;;;5108165;28;20471;-28
2021/01/31 05:56:39;;;;;;;0.60;0.60;;;3.60;99.90;;;;;;5106494;28;20543;-27
2021/01/31 05:59:11;;;;;;;0.60;0.60;;;3.50;99.90;;;;;;5004515;28;20525;-27
2021/01/31 06:01:55;;;;;;;0.60;0.60;;;3.60;99.90;;;;;;5005522;28;20463;-27
2021/01/31 06:04:24;;;;;;;0.60;0.60;;;3.70;99.90;;;;;;5002637;28;20459;-27
2021/01/31 06:06:53;;;;;;;0.50;0.50;;;3.70;99.90;;;;;;5003828;28;20774;-27
2021/01/31 06:09:38;;;;;;;0.50;0.50;;;3.70;99.90;;;;;;4988015;28;20529;-26
2021/01/31 06:12:15;;;;;;;0.60;0.60;;;3.70;99.90;;;;;;4987755;28;20478;-29
2021/01/31 06:14:44;;;;;;;0.60;0.60;;;3.60;99.90;;;;;;5004741;28;20610;-29
2021/01/31 06:17:20;;;;;;;0.50;0.50;;;3.70;99.90;;;;;;5003856;28;20459;-29
2021/01/31 06:19:49;;;;;;;0.60;0.60;;;3.80;99.90;;;;;;5004285;28;20454;-28
2021/01/31 06:22:36;;;;;;;0.53;0.53;;;3.80;99.90;;;;;;5003555;28;20571;-27
2021/01/31 06:25:03;;;;;;;0.60;0.60;;;3.80;99.90;;;;;;5004409;28;20482;-28
2021/01/31 06:27:34;;;;;;;0.50;0.50;;;3.80;99.90;;;;;;5076364;28;20451;-26
2021/01/31 06:30:14;;;;;;;0.60;0.60;;;3.90;99.90;;;;;;5086691;28;20451;-28
2021/01/31 06:32:42;;;;;;;1.03;1.03;;;4.10;99.90;;;;;;5085415;28;20575;-28
2021/01/31 06:35:13;;;;;;;0.60;0.60;;;4.10;99.90;;;;;;5086488;28;20474;-28
2021/01/31 06:37:55;;;;;;;0.50;0.50;;;4.20;99.90;;;;;;5087230;28;20454;-27
2021/01/31 06:40:40;;;;;;;0.53;0.53;;;4.20;99.90;;;;;;5085078;28;20759;-27
2021/01/31 06:43:20;;;;;;;0.50;0.50;;;4.10;99.90;;;;;;5087257;28;20895;-28
2021/01/31 06:45:56;;;;;;;0.60;0.60;;;4.10;99.90;;;;;;5086982;28;20463;-29
2021/01/31 06:48:41;;;;;;;0.60;0.60;;;4.10;99.90;;;;;;5093587;28;20494;-27
2021/01/31 06:51:43;;;;;;;0.70;0.70;;;4.00;99.90;;;;;;5107433;28;20633;-25
2021/01/31 06:54:54;;;;;;;0.70;0.70;;;3.90;99.90;;;;;;5106887;28;20560;-24
2021/01/31 06:57:59;;;;;;;0.60;0.60;;;3.70;99.90;;;;;;5101853;28;20477;-26
2021/01/31 07:01:16;;;;;;;0.60;0.60;;;3.60;99.90;;;;;;5107136;28;20482;-26
2021/01/31 07:04:33;;;;;;;0.70;0.70;;;3.70;99.90;;;;;;5003513;28;20894;-26
2021/01/31 07:07:51;;;;;;;0.70;0.70;;;3.60;99.90;;;;;;5059115;28;20886;-28
2021/01/31 07:10:38;;;;;;;0.70;0.70;;;3.60;99.90;;;;;;5106377;28;20494;-27
2021/01/31 07:13:14;;;;;;;0.60;0.60;;;3.60;99.90;;;;;;5103111;28;20488;-26
2021/01/31 07:15:50;;;;;;;0.67;0.67;;;3.70;99.90;;;;;;5105656;28;20871;-28
2021/01/31 07:18:21;;;;;;;0.60;0.60;;;3.70;99.90;;;;;;5105560;28;20875;-26
2021/01/31 07:20:54;;;;;;;0.60;0.60;;;3.80;99.90;;;;;;5105583;28;20446;-27
2021/01/31 07:23:30;;;;;;;1.80;1.80;;;3.90;99.90;;;;;;5088061;28;20481;-27
2021/01/31 07:26:00;;;;;;;0.70;0.70;;;4.00;99.90;;;;;;5105463;28;20434;-26
2021/01/31 07:28:32;;;;;;;0.60;0.60;;;4.20;99.90;;;;;;5106675;28;20461;-26
2021/01/31 07:31:06;;;;;;;0.70;0.70;;;4.10;99.90;;;;;;5103365;28;20471;-26
2021/01/31 07:33:41;;;;;;;1.67;1.67;;;4.00;99.90;;;;;;5104018;28;20884;-26
2021/01/31 07:36:17;;;;;;;0.50;0.50;;;4.10;99.90;;;;;;5105938;28;20458;-26
2021/01/31 07:38:50;;;;;;;0.60;0.60;;;4.30;99.90;;;;;;5102066;28;20513;-27
2021/01/31 07:41:18;;;;;;;1.23;1.23;;;4.20;99.90;;;;;;5105540;28;20485;-26
2021/01/31 07:43:52;;;;;;;0.50;0.50;;;4.20;99.90;;;;;;5104809;28;20863;-27
2021/01/31 07:46:19;;;;;;;0.50;0.50;;;4.10;99.90;;;;;;5098903;28;20507;-27
2021/01/31 07:49:14;;;;;;;0.50;0.50;;;4.10;99.90;;;;;;5092964;28;20909;-27
2021/01/31 07:52:04;;;;;;;0.50;0.50;;;4.10;99.90;;;;;;5085065;28;21139;-27
2021/01/31 07:54:43;;;;;;;0.50;0.50;;;4.20;99.90;;;;;;5083922;28;20938;-26
2021/01/31 07:57:32;;;;;;;0.50;0.50;;;4.30;99.90;;;;;;5089624;28;20898;-27
2021/01/31 08:00:00;;;;;;;0.50;0.50;;;4.30;99.90;;;;;;5080466;28;20689;-28
2021/01/31 08:02:36;;;;;;;0.50;0.50;;;4.30;99.90;;;;;;5079046;28;20480;-28
2021/01/31 08:05:05;;;;;;;0.50;0.50;;;4.30;99.90;;;;;;5078052;28;20436;-27
2021/01/31 08:08:01;;;;;;;0.50;0.50;;;4.40;99.90;;;;;;5085769;28;20951;-28
2021/01/31 08:10:56;;;;;;;0.50;0.50;;;4.40;99.90;;;;;;5094123;28;20762;-27
2021/01/31 08:13:41;;;;;;;0.60;0.60;;;4.30;99.90;;;;;;5062820;28;20463;-26
2021/01/31 08:16:53;;;;;;;0.50;0.50;;;4.30;99.90;;;;;;5079784;28;20762;-27
2021/01/31 08:19:29;;;;;;;0.50;0.50;;;4.30;99.90;;;;;;5098822;28;20454;-28
2021/01/31 08:22:04;;;;;;;0.50;0.50;;;4.30;99.90;;;;;;5096184;28;20479;-27
2021/01/31 08:25:01;;;;;;;0.53;0.53;;;4.30;99.90;;;;;;5088989;28;20560;-29
2021/01/31 08:27:52;;;;;;;0.50;0.50;;;4.40;99.90;;;;;;5088832;28;20483;-27
2021/01/31 08:30:28;;;;;;;0.50;0.50;;;4.50;99.90;;;;;;5086824;28;20625;-27
2021/01/31 08:33:22;;;;;;;0.60;0.60;;;4.60;99.90;;;;;;5087484;28;20446;-27
2021/01/31 08:36:05;;;;;;;0.53;0.53;;;4.70;99.90;;;;;;5086097;28;20467;-28
2021/01/31 08:38:37;;;;;;;0.50;0.50;;;4.70;99.90;;;;;;5099851;28;20474;-27
2021/01/31 08:41:31;;;;;;;0.50;0.50;;;4.60;99.90;;;;;;5107541;28;20439;-27
2021/01/31 08:44:00;;;;;;;2.30;2.20;;;4.50;99.90;;;;;;5105459;28;20493;-28
2021/01/31 08:46:29;;;;;;;0.47;0.47;;;4.60;99.90;;;;;;5109224;28;20537;-27
2021/01/31 08:48:58;;;;;;;15.17;4.20;;;4.80;99.90;;;;;;5107267;28;20441;-28
2021/01/31 08:51:27;;;;;;;2.60;2.40;;;4.90;99.90;;;;;;5108128;28;20439;-27
2021/01/31 08:54:05;;;;;;;0.57;0.57;;;4.90;99.90;;;;;;5108237;28;20857;-31
2021/01/31 08:56:35;;;;;;;0.53;0.53;;;5.00;99.90;;;;;;5108728;28;20545;-28
2021/01/31 08:59:04;;;;;;;0.60;0.60;;;5.00;99.90;;;;;;5106565;28;20499;-27
2021/01/31 09:01:39;;;;;;;0.50;0.50;;;5.10;99.90;;;;;;5102144;28;20450;-29
2021/01/31 09:04:08;;;;;;;0.50;0.50;;;5.00;99.90;;;;;;5084716;28;20919;-29
2021/01/31 09:06:37;;;;;;;0.50;0.50;;;5.00;99.90;;;;;;5088307;28;20454;-27
2021/01/31 09:09:05;;;;;;;0.50;0.50;;;5.00;99.90;;;;;;5093409;28;20436;-28
2021/01/31 09:11:34;;;;;;;0.50;0.50;;;4.90;99.90;;;;;;5095707;28;20442;-26
2021/01/31 09:14:16;;;;;;;0.50;0.50;;;5.00;99.90;;;;;;5089743;28;20458;-30
2021/01/31 09:16:44;;;;;;;0.60;0.60;;;5.00;99.90;;;;;;5093697;28;20452;-27
2021/01/31 09:19:18;;;;;;;0.60;0.60;;;5.10;99.90;;;;;;5106668;28;20605;-29
2021/01/31 09:21:49;;;;;;;0.50;0.50;;;5.00;99.90;;;;;;5106278;28;20458;-28
2021/01/31 09:24:19;;;;;;;0.50;0.50;;;5.00;99.90;;;;;;5101405;28;20968;-26
2021/01/31 09:26:51;;;;;;;2.60;2.50;;;5.20;99.90;;;;;;5087417;28;20434;-29
2021/01/31 09:29:24;;;;;;;0.50;0.50;;;5.40;99.90;;;;;;5086092;28;20490;-28
2021/01/31 09:31:55;;;;;;;0.60;0.60;;;5.30;99.90;;;;;;5086290;28;20452;-29
2021/01/31 09:34:24;;;;;;;0.60;0.60;;;5.50;99.90;;;;;;5086538;28;20531;-27
2021/01/31 09:37:05;;;;;;;7.73;7.10;;;5.70;99.90;;;;;;5085604;28;21033;-29
2021/01/31 09:39:34;;;;;;;0.57;0.57;;;5.80;99.90;;;;;;5087312;28;20475;-28
2021/01/31 09:42:02;;;;;;;0.50;0.50;;;5.80;99.90;;;;;;5102946;28;20450;-29
2021/01/31 09:44:30;;;;;;;0.60;0.60;;;5.90;99.90;;;;;;5107160;28;20542;-31
2021/01/31 09:46:57;;;;;;;0.50;0.50;;;5.70;99.90;;;;;;5097259;28;20778;-28
2021/01/31 09:49:28;;;;;;;0.60;0.60;;;5.70;99.90;;;;;;5086066;28;20484;-27
2021/01/31 09:52:05;;;;;;;6.23;5.93;;;5.70;99.90;;;;;;5086609;28;21175;-28
2021/01/31 09:54:35;;;;;;;0.60;0.60;;;5.60;99.90;;;;;;5088143;28;20491;-28
2021/01/31 09:57:05;;;;;;;1.17;1.17;;;5.50;99.90;;;;;;5099601;28;20499;-30
2021/01/31 09:59:36;;;;;;;4.73;4.43;;;5.60;99.90;;;;;;5086654;28;20999;-28
2021/01/31 10:02:06;;;;;;;0.60;0.60;;;5.20;99.90;;;;;;5069326;28;20493;-28
2021/01/31 10:04:36;;;;;;;0.60;0.60;;;5.20;99.90;;;;;;5064814;28;20509;-27
2021/01/31 10:07:08;;;;;;;0.73;0.73;;;5.10;99.90;;;;;;5080420;28;20534;-29
2021/01/31 10:09:39;;;;;;;0.50;0.50;;;5.40;99.90;;;;;;5083501;28;20463;-28
2021/01/31 10:12:13;;;;;;;0.70;0.70;;;5.60;99.90;;;;;;5083585;28;21038;-28
2021/01/31 10:14:44;;;;;;;0.60;0.60;;;5.70;99.90;;;;;;5084618;28;20451;-29
2021/01/31 10:17:14;;;;;;;0.63;0.63;;;5.80;99.90;;;;;;5084999;28;20454;-30
2021/01/31 10:19:40;;;;;;;0.63;0.63;;;5.80;99.90;;;;;;5085256;28;20538;-27
2021/01/31 10:22:14;;;;;;;0.60;0.60;;;5.70;99.90;;;;;;5078791;28;20854;-26
2021/01/31 10:24:48;;;;;;;1.70;1.63;;;5.50;99.90;;;;;;5065118;28;20453;-27
2021/01/31 10:27:26;;;;;;;0.70;0.70;;;5.50;99.90;;;;;;5065872;28;20544;-30
2021/01/31 10:29:55;;;;;;;2.03;1.93;;;5.50;99.90;;;;;;5064787;28;20934;-27
2021/01/31 10:32:39;;;;;;;0.70;0.70;;;5.30;99.90;;;;;;5047120;28;20468;-27
2021/01/31 10:35:27;;;;;;;0.70;0.70;;;5.30;99.90;;;;;;5066448;28;20492;-28
2021/01/31 10:37:55;;;;;;;0.63;0.63;;;5.50;99.90;;;;;;5064610;28;20543;-28
2021/01/31 10:40:23;;;;;;;0.60;0.60;;;5.70;99.90;;;;;;5066446;28;20524;-28
2021/01/31 10:42:50;;;;;;;0.60;0.60;;;5.80;99.90;;;;;;5066083;28;20495;-27
2021/01/31 10:45:22;;;;;;;0.60;0.60;;;5.90;99.90;;;;;;5079479;28;20447;-28
2021/01/31 10:47:49;;;;;;;0.70;0.70;;;6.10;99.90;;;;;;5084499;28;20443;-27
2021/01/31 10:50:18;;;;;;;0.77;0.77;;;6.30;99.90;;;;;;5085191;28;20463;-29
2021/01/31 10:52:48;;;;;;;0.60;0.60;;;6.40;99.90;;;;;;5067074;28;20849;-27
2021/01/31 10:55:16;;;;;;;0.60;0.60;;;6.50;99.90;;;;;;5064901;28;20445;-28
2021/01/31 10:57:44;;;;;;;0.70;0.70;;;6.60;99.90;;;;;;5047143;28;20495;-28
2021/01/31 11:00:13;;;;;;;0.80;0.80;;;6.60;99.90;;;;;;5063066;28;20467;-28
2021/01/31 11:02:42;;;;;;;0.60;0.60;;;6.70;99.90;;;;;;5067507;28;20469;-29
2021/01/31 11:05:10;;;;;;;0.63;0.63;;;6.80;99.90;;;;;;5071437;28;20463;-27
2021/01/31 11:08:00;;;;;;;0.70;0.70;;;7.00;99.90;;;;;;5076356;28;20463;-28
2021/01/31 11:10:28;;;;;;;0.70;0.70;;;7.20;99.90;;;;;;5061497;28;20441;-28
2021/01/31 11:12:56;;;;;;;1.27;1.27;;;7.30;99.90;;;;;;5059946;28;20882;-28
2021/01/31 11:15:24;;;;;;;0.70;0.70;;;7.50;99.90;;;;;;5062787;28;20459;-28
2021/01/31 11:17:52;;;;;;;0.60;0.60;;;7.40;99.90;;;;;;5066794;28;20452;-28
2021/01/31 11:20:19;;;;;;;0.80;0.80;;;7.50;99.90;;;;;;5075170;28;20830;-28
2021/01/31 11:22:45;;;;;;;0.80;0.80;;;7.50;99.90;;;;;;5076009;28;20788;-27
2021/01/31 11:25:12;;;;;;;0.80;0.80;;;7.50;99.90;;;;;;5056215;28;20470;-27
2021/01/31 11:27:39;;;;;;;0.80;0.80;;;7.50;99.90;;;;;;5076153;28;20667;-27
2021/01/31 11:30:06;;;;;;;0.87;0.87;;;7.60;99.90;;;;;;5077594;28;20454;-27
2021/01/31 11:32:33;;;;;;;0.90;0.90;;;7.60;99.90;;;;;;5074869;28;20808;-27
2021/01/31 11:35:01;;;;;;;0.80;0.80;;;7.70;99.90;;;;;;5061667;28;20566;-27
2021/01/31 11:37:27;;;;;;;2.20;2.10;;;7.80;99.90;;;;;;5061521;28;20892;-27
2021/01/31 11:39:54;;;;;;;0.80;0.80;;;7.80;99.90;;;;;;5062214;28;21170;-28
2021/01/31 11:42:21;;;;;;;0.90;0.90;;;7.80;99.90;;;;;;5060393;28;20469;-28
2021/01/31 11:44:48;;;;;;;0.90;0.90;;;7.70;99.90;;;;;;5060465;28;20445;-27
2021/01/31 11:47:15;;;;;;;2.23;2.13;;;7.70;99.90;;;;;;5069479;28;20818;-28
2021/01/31 11:49:42;;;;;;;1.17;1.17;;;7.70;99.90;;;;;;5074512;28;20487;-28
2021/01/31 11:52:09;;;;;;;1.00;1.00;;;7.70;99.90;;;;;;5074926;28;20436;-28
2021/01/31 11:54:36;;;;;;;0.90;0.90;;;7.60;99.90;;;;;;5076547;28;20760;-27
2021/01/31 11:57:04;;;;;;;1.00;1.00;;;7.50;99.90;;;;;;5075191;28;20743;-27
2021/01/31 11:59:31;;;;;;;0.80;0.80;;;7.50;99.90;;;;;;5075869;28;20480;-27
2021/01/31 12:01:57;;;;;;;1.00;1.00;;;7.60;99.90;;;;;;5044496;28;20701;-28
2021/01/31 12:04:24;;;;;;;1.00;1.00;;;7.70;99.90;;;;;;5062369;28;20484;-28
2021/01/31 12:06:51;;;;;;;0.80;0.80;;;7.80;99.90;;;;;;5045241;28;20494;-27
2021/01/31 12:09:18;;;;;;;1.00;1.00;;;8.00;99.90;;;;;;5063084;28;20553;-28
2021/01/31 12:11:45;;;;;;;1.10;1.10;;;8.00;99.90;;;;;;5044170;28;20513;-27
2021/01/31 12:14:12;;;;;;;1.00;1.00;;;8.00;99.90;;;;;;5063656;28;20507;-30
2021/01/31 12:16:47;;;;;;;1.00;1.00;;;7.90;99.90;;;;;;5062373;28;20783;-28
2021/01/31 12:19:14;;;;;;;0.80;0.80;;;7.80;99.90;;;;;;5030548;28;20870;-29
2021/01/31 12:21:41;;;;;;;0.83;0.83;;;7.90;99.90;;;;;;5062602;28;20968;-29
2021/01/31 12:24:08;;;;;;;0.93;0.93;;;7.90;99.90;;;;;;5069548;28;20490;-28
2021/01/31 12:26:35;;;;;;;1.57;1.57;;;7.90;99.90;;;;;;5079981;28;20439;-28
2021/01/31 12:29:05;;;;;;;1.03;1.03;;;7.80;99.90;;;;;;5078887;28;20937;-29
2021/01/31 12:31:31;;;;;;;1.00;1.00;;;7.70;99.90;;;;;;5073144;28;20459;-27
2021/01/31 12:33:58;;;;;;;1.10;1.10;;;7.80;99.90;;;;;;5075506;28;20492;-28
2021/01/31 12:36:28;;;;;;;1.10;1.10;;;7.90;99.90;;;;;;5065306;28;20455;-28
2021/01/31 12:38:57;;;;;;;1.00;1.00;;;8.10;99.90;;;;;;5063789;28;20543;-27
2021/01/31 12:41:25;;;;;;;1.00;1.00;;;8.20;99.90;;;;;;5063540;28;20540;-28
2021/01/31 12:43:58;;;;;;;1.00;1.00;;;8.30;99.90;;;;;;5065000;28;20883;-27
2021/01/31 12:46:26;;;;;;;1.10;1.10;;;8.40;99.90;;;;;;5083279;28;20439;-27
2021/01/31 12:48:54;;;;;;;1.30;1.30;;;8.30;99.90;;;;;;5083130;28;20811;-27
2021/01/31 12:51:21;;;;;;;1.00;1.00;;;8.20;99.90;;;;;;5065238;28;20463;-27
2021/01/31 12:53:48;;;;;;;1.00;1.00;;;8.20;99.90;;;;;;5088637;28;20531;-27
2021/01/31 12:56:15;;;;;;;1.10;1.10;;;8.30;99.90;;;;;;5086942;28;20466;-27
2021/01/31 12:58:43;;;;;;;1.20;1.20;;;8.20;99.90;;;;;;5045069;28;20521;-27
2021/01/31 13:01:10;;;;;;;1.00;1.00;;;8.00;99.90;;;;;;5046601;28;20508;-27
2021/01/31 13:03:37;;;;;;;1.10;1.10;;;8.10;99.90;;;;;;5043869;28;20596;-27
2021/01/31 13:06:04;;;;;;;1.00;1.00;;;8.20;99.90;;;;;;5047644;28;20445;-27
2021/01/31 13:08:31;;;;;;;0.90;0.90;;;8.30;99.90;;;;;;5047885;28;20457;-28
2021/01/31 13:10:58;;;;;;;1.00;1.00;;;8.40;99.90;;;;;;5046585;28;20457;-27
2021/01/31 13:13:25;;;;;;;0.90;0.90;;;8.40;99.90;;;;;;5058836;28;20493;-27
2021/01/31 13:15:52;;;;;;;0.93;0.93;;;8.50;99.90;;;;;;5061556;28;20739;-28
2021/01/31 13:18:19;;;;;;;1.00;1.00;;;8.50;99.90;;;;;;5061815;28;20501;-27
2021/01/31 13:20:46;;;;;;;0.97;0.97;;;8.40;99.90;;;;;;5063173;28;20460;-28
2021/01/31 13:23:16;;;;;;;1.00;1.00;;;8.50;99.90;;;;;;5061627;28;20465;-28
2021/01/31 13:25:43;;;;;;;1.00;1.00;;;8.50;99.90;;;;;;5060588;28;20448;-27
2021/01/31 13:28:10;;;;;;;1.03;1.03;;;8.50;99.90;;;;;;5062439;28;20441;-28
2021/01/31 13:30:37;;;;;;;0.97;0.97;;;8.50;99.90;;;;;;5064242;28;20479;-27